sensor_id;sensor_type;location;lat;lon;timestamp;temperature;humidity
43627;DHT22;29217;52.586;13.442;2022-12-07T00:01:07;2.80;99.90
43627;DHT22;29217;52.586;13.442;2022-12-07T00:03:34;2.80;99.90
43627;DHT22;29217;52.586;13.442;2022-12-07T00:06:01;2.80;99.90
43627;DHT22;29217;52.586;13.442;2022-12-07T00:08:27;2.70;99.90
43627;DHT22;29217;52.586;13.442;2022-12-07T00:10:53;2.80;99.90
43627;DHT22;29217;52.586;13.442;2022-12-07T00:13:18;2.70;99.90
43627;DHT22;29217;52.586;13.442;2022-12-07T00:15:45;2.70;99.90
43627;DHT22;29217;52.586;13.442;2022-12-07T00:18:11;2.70;99.90
43627;DHT22;29217;52.586;13.442;2022-12-07T00:20:37;2.70;99.90
43627;DHT22;29217;52.586;13.442;2022-12-07T00:23:03;2.70;99.90
43627;DHT22;29217;52.586;13.442;2022-12-07T00:25:30;2.60;99.90
43627;DHT22;29217;52.586;13.442;2022-12-07T00:27:56;2.60;99.90
43627;DHT22;29217;52.586;13.442;2022-12-07T00:30:23;2.60;99.90
43627;DHT22;29217;52.586;13.442;2022-12-07T00:32:49;2.50;99.90
43627;DHT22;29217;52.586;13.442;2022-12-07T00:35:15;2.60;99.90
43627;DHT22;29217;52.586;13.442;2022-12-07T00:37:41;2.50;99.90
43627;DHT22;29217;52.586;13.442;2022-12-07T00:40:07;2.50;99.90
43627;DHT22;29217;52.586;13.442;2022-12-07T00:42:32;2.50;99.90
43627;DHT22;29217;52.586;13.442;2022-12-07T00:44:58;2.50;99.90
43627;DHT22;29217;52.586;13.442;2022-12-07T00:47:24;2.50;99.90
43627;DHT22;29217;52.586;13.442;2022-12-07T00:49:49;2.40;99.90
43627;DHT22;29217;52.586;13.442;2022-12-07T00:52:15;2.40;99.90
43627;DHT22;29217;52.586;13.442;2022-12-07T00:54:40;2.40;99.90
43627;DHT22;29217;52.586;13.442;2022-12-07T00:57:06;2.40;99.90
43627;DHT22;29217;52.586;13.442;2022-12-07T00:59:32;2.40;99.90
43627;DHT22;29217;52.586;13.442;2022-12-07T01:01:57;2.40;99.90
43627;DHT22;29217;52.586;13.442;2022-12-07T01:04:23;2.40;99.90
43627;DHT22;29217;52.586;13.442;2022-12-07T01:06:48;2.40;99.90
43627;DHT22;29217;52.586;13.442;2022-12-07T01:09:14;2.30;99.90
43627;DHT22;29217;52.586;13.442;2022-12-07T01:11:40;2.30;99.90
43627;DHT22;29217;52.586;13.442;2022-12-07T01:14:05;2.30;99.90
43627;DHT22;29217;52.586;13.442;2022-12-07T01:16:32;2.30;99.90
43627;DHT22;29217;52.586;13.442;2022-12-07T01:18:59;2.20;99.90
43627;DHT22;29217;52.586;13.442;2022-12-07T01:21:28;2.20;99.90
43627;DHT22;29217;52.586;13.442;2022-12-07T01:23:54;2.20;99.90
43627;DHT22;29217;52.586;13.442;2022-12-07T01:26:22;2.10;99.90
43627;DHT22;29217;52.586;13.442;2022-12-07T01:28:48;2.10;99.90
43627;DHT22;29217;52.586;13.442;2022-12-07T01:31:17;2.20;99.90
43627;DHT22;29217;52.586;13.442;2022-12-07T01:33:46;2.20;99.90
43627;DHT22;29217;52.586;13.442;2022-12-07T01:38:43;2.20;99.90
43627;DHT22;29217;52.586;13.442;2022-12-07T01:41:09;2.20;99.90
43627;DHT22;29217;52.586;13.442;2022-12-07T01:43:35;2.20;99.90
43627;DHT22;29217;52.586;13.442;2022-12-07T01:46:02;2.20;99.90
43627;DHT22;29217;52.586;13.442;2022-12-07T01:48:34;2.10;99.90
43627;DHT22;29217;52.586;13.442;2022-12-07T01:51:08;2.20;99.90
43627;DHT22;29217;52.586;13.442;2022-12-07T01:53:36;2.20;99.90
43627;DHT22;29217;52.586;13.442;2022-12-07T01:56:03;2.20;99.90
43627;DHT22;29217;52.586;13.442;2022-12-07T01:58:30;2.20;99.90
43627;DHT22;29217;52.586;13.442;2022-12-07T02:00:56;2.20;99.90
43627;DHT22;29217;52.586;13.442;2022-12-07T02:03:29;2.20;99.90
43627;DHT22;29217;52.586;13.442;2022-12-07T02:05:56;2.20;99.90
43627;DHT22;29217;52.586;13.442;2022-12-07T02:08:22;2.20;99.90
43627;DHT22;29217;52.586;13.442;2022-12-07T02:10:48;2.20;99.90
43627;DHT22;29217;52.586;13.442;2022-12-07T02:13:20;2.10;99.90
43627;DHT22;29217;52.586;13.442;2022-12-07T02:24:48;2.10;99.90
43627;DHT22;29217;52.586;13.442;2022-12-07T02:27:28;2.00;99.90
43627;DHT22;29217;52.586;13.442;2022-12-07T02:30:06;2.00;99.90
43627;DHT22;29217;52.586;13.442;2022-12-07T02:32:40;1.90;99.90
43627;DHT22;29217;52.586;13.442;2022-12-07T02:35:19;1.90;99.90
43627;DHT22;29217;52.586;13.442;2022-12-07T02:38:02;1.90;99.90
43627;DHT22;29217;52.586;13.442;2022-12-07T02:40:53;1.90;99.90
43627;DHT22;29217;52.586;13.442;2022-12-07T02:43:26;1.90;99.90
43627;DHT22;29217;52.586;13.442;2022-12-07T02:45:57;1.90;99.90
43627;DHT22;29217;52.586;13.442;2022-12-07T02:48:25;1.90;99.90
43627;DHT22;29217;52.586;13.442;2022-12-07T02:50:52;1.80;99.90
43627;DHT22;29217;52.586;13.442;2022-12-07T02:53:42;1.80;99.90
43627;DHT22;29217;52.586;13.442;2022-12-07T03:13:25;1.80;99.90
43627;DHT22;29217;52.586;13.442;2022-12-07T03:18:45;1.80;99.90
43627;DHT22;29217;52.586;13.442;2022-12-07T03:21:16;1.80;99.90
43627;DHT22;29217;52.586;13.442;2022-12-07T03:23:48;1.80;99.90
43627;DHT22;29217;52.586;13.442;2022-12-07T03:26:17;1.80;99.90
43627;DHT22;29217;52.586;13.442;2022-12-07T03:28:52;1.80;99.90
43627;DHT22;29217;52.586;13.442;2022-12-07T03:31:25;1.90;99.90
43627;DHT22;29217;52.586;13.442;2022-12-07T03:33:59;1.90;99.90
43627;DHT22;29217;52.586;13.442;2022-12-07T03:39:02;1.90;99.90
43627;DHT22;29217;52.586;13.442;2022-12-07T03:41:33;2.00;99.90
43627;DHT22;29217;52.586;13.442;2022-12-07T03:44:00;2.00;99.90
43627;DHT22;29217;52.586;13.442;2022-12-07T03:47:05;2.00;99.90
43627;DHT22;29217;52.586;13.442;2022-12-07T03:49:37;2.00;99.90
43627;DHT22;29217;52.586;13.442;2022-12-07T03:54:54;2.10;99.90
43627;DHT22;29217;52.586;13.442;2022-12-07T03:57:22;2.10;99.90
43627;DHT22;29217;52.586;13.442;2022-12-07T03:59:48;2.10;99.90
43627;DHT22;29217;52.586;13.442;2022-12-07T04:02:15;2.20;99.90
43627;DHT22;29217;52.586;13.442;2022-12-07T04:04:42;2.10;99.90
43627;DHT22;29217;52.586;13.442;2022-12-07T04:07:08;2.20;99.90
43627;DHT22;29217;52.586;13.442;2022-12-07T04:09:34;2.20;99.90
43627;DHT22;29217;52.586;13.442;2022-12-07T04:12:00;2.20;99.90
43627;DHT22;29217;52.586;13.442;2022-12-07T04:14:25;2.10;99.90
43627;DHT22;29217;52.586;13.442;2022-12-07T04:16:53;2.10;99.90
43627;DHT22;29217;52.586;13.442;2022-12-07T04:19:24;2.20;99.90
43627;DHT22;29217;52.586;13.442;2022-12-07T04:21:50;2.20;99.90
43627;DHT22;29217;52.586;13.442;2022-12-07T04:24:16;2.20;99.90
43627;DHT22;29217;52.586;13.442;2022-12-07T04:26:43;2.20;99.90
43627;DHT22;29217;52.586;13.442;2022-12-07T04:29:09;2.10;99.90
43627;DHT22;29217;52.586;13.442;2022-12-07T04:31:36;2.30;99.90
43627;DHT22;29217;52.586;13.442;2022-12-07T04:34:02;2.30;99.90
43627;DHT22;29217;52.586;13.442;2022-12-07T04:36:28;2.30;99.90
43627;DHT22;29217;52.586;13.442;2022-12-07T04:38:54;2.30;99.90
43627;DHT22;29217;52.586;13.442;2022-12-07T04:41:21;2.30;99.90
43627;DHT22;29217;52.586;13.442;2022-12-07T04:43:53;2.30;99.90
43627;DHT22;29217;52.586;13.442;2022-12-07T04:46:19;2.30;99.90
43627;DHT22;29217;52.586;13.442;2022-12-07T04:48:45;2.20;99.90
43627;DHT22;29217;52.586;13.442;2022-12-07T04:51:10;2.20;99.90
43627;DHT22;29217;52.586;13.442;2022-12-07T04:53:36;2.20;99.90
43627;DHT22;29217;52.586;13.442;2022-12-07T04:56:01;2.20;99.90
43627;DHT22;29217;52.586;13.442;2022-12-07T04:58:27;2.30;99.90
43627;DHT22;29217;52.586;13.442;2022-12-07T05:00:56;2.30;99.90
43627;DHT22;29217;52.586;13.442;2022-12-07T05:03:21;2.30;99.90
43627;DHT22;29217;52.586;13.442;2022-12-07T05:05:47;2.30;99.90
43627;DHT22;29217;52.586;13.442;2022-12-07T05:08:12;2.40;99.90
43627;DHT22;29217;52.586;13.442;2022-12-07T05:10:38;2.40;99.90
43627;DHT22;29217;52.586;13.442;2022-12-07T05:13:03;2.40;99.90
43627;DHT22;29217;52.586;13.442;2022-12-07T05:15:29;2.40;99.90
43627;DHT22;29217;52.586;13.442;2022-12-07T05:17:55;2.40;99.90
43627;DHT22;29217;52.586;13.442;2022-12-07T05:20:20;2.40;99.90
43627;DHT22;29217;52.586;13.442;2022-12-07T05:22:46;2.50;99.90
43627;DHT22;29217;52.586;13.442;2022-12-07T05:25:12;2.50;99.90
43627;DHT22;29217;52.586;13.442;2022-12-07T05:27:37;2.50;99.90
43627;DHT22;29217;52.586;13.442;2022-12-07T05:30:04;2.50;99.90
43627;DHT22;29217;52.586;13.442;2022-12-07T05:32:30;2.50;99.90
43627;DHT22;29217;52.586;13.442;2022-12-07T05:34:56;2.50;99.90
43627;DHT22;29217;52.586;13.442;2022-12-07T05:37:21;2.50;99.90
43627;DHT22;29217;52.586;13.442;2022-12-07T05:39:47;2.50;99.90
43627;DHT22;29217;52.586;13.442;2022-12-07T05:42:12;2.60;99.90
43627;DHT22;29217;52.586;13.442;2022-12-07T05:44:39;2.60;99.90
43627;DHT22;29217;52.586;13.442;2022-12-07T05:47:05;2.60;99.90
43627;DHT22;29217;52.586;13.442;2022-12-07T05:49:30;2.60;99.90
43627;DHT22;29217;52.586;13.442;2022-12-07T05:51:56;2.60;99.90
43627;DHT22;29217;52.586;13.442;2022-12-07T05:54:22;2.70;99.90
43627;DHT22;29217;52.586;13.442;2022-12-07T05:56:47;2.60;99.90
43627;DHT22;29217;52.586;13.442;2022-12-07T05:59:13;2.70;99.90
43627;DHT22;29217;52.586;13.442;2022-12-07T06:02:09;2.70;99.90
43627;DHT22;29217;52.586;13.442;2022-12-07T06:04:36;2.80;99.90
43627;DHT22;29217;52.586;13.442;2022-12-07T06:07:03;2.70;99.90
43627;DHT22;29217;52.586;13.442;2022-12-07T06:09:29;2.80;99.90
43627;DHT22;29217;52.586;13.442;2022-12-07T06:11:56;2.80;99.90
43627;DHT22;29217;52.586;13.442;2022-12-07T06:14:41;2.80;99.90
43627;DHT22;29217;52.586;13.442;2022-12-07T06:17:06;2.80;99.90
43627;DHT22;29217;52.586;13.442;2022-12-07T06:19:32;2.90;99.90
43627;DHT22;29217;52.586;13.442;2022-12-07T06:21:58;2.80;99.90
43627;DHT22;29217;52.586;13.442;2022-12-07T06:24:24;2.90;99.90
43627;DHT22;29217;52.586;13.442;2022-12-07T06:26:50;2.90;99.90
43627;DHT22;29217;52.586;13.442;2022-12-07T06:29:17;2.80;99.90
43627;DHT22;29217;52.586;13.442;2022-12-07T06:31:42;2.80;99.90
43627;DHT22;29217;52.586;13.442;2022-12-07T06:34:17;2.80;99.90
43627;DHT22;29217;52.586;13.442;2022-12-07T06:36:43;2.80;99.90
43627;DHT22;29217;52.586;13.442;2022-12-07T06:39:09;2.80;99.90
43627;DHT22;29217;52.586;13.442;2022-12-07T06:41:39;2.80;99.90
43627;DHT22;29217;52.586;13.442;2022-12-07T06:44:05;2.90;99.90
43627;DHT22;29217;52.586;13.442;2022-12-07T06:46:31;2.90;99.90
43627;DHT22;29217;52.586;13.442;2022-12-07T06:48:57;2.90;99.90
43627;DHT22;29217;52.586;13.442;2022-12-07T06:51:22;2.90;99.90
43627;DHT22;29217;52.586;13.442;2022-12-07T06:53:48;3.00;99.90
43627;DHT22;29217;52.586;13.442;2022-12-07T06:56:14;2.90;99.90
43627;DHT22;29217;52.586;13.442;2022-12-07T06:58:40;3.00;99.90
43627;DHT22;29217;52.586;13.442;2022-12-07T07:01:17;3.00;99.90
43627;DHT22;29217;52.586;13.442;2022-12-07T07:03:44;3.00;99.90
43627;DHT22;29217;52.586;13.442;2022-12-07T07:06:10;3.00;99.90
43627;DHT22;29217;52.586;13.442;2022-12-07T07:08:38;3.00;99.90
43627;DHT22;29217;52.586;13.442;2022-12-07T07:11:04;3.00;99.90
43627;DHT22;29217;52.586;13.442;2022-12-07T07:13:30;3.10;99.90
43627;DHT22;29217;52.586;13.442;2022-12-07T07:15:56;3.10;99.90
43627;DHT22;29217;52.586;13.442;2022-12-07T07:18:22;3.00;99.90
43627;DHT22;29217;52.586;13.442;2022-12-07T07:20:47;3.10;99.90
43627;DHT22;29217;52.586;13.442;2022-12-07T07:23:13;3.10;99.90
43627;DHT22;29217;52.586;13.442;2022-12-07T07:25:38;3.10;99.90
43627;DHT22;29217;52.586;13.442;2022-12-07T07:28:04;3.20;99.90
43627;DHT22;29217;52.586;13.442;2022-12-07T07:30:30;3.20;99.90
43627;DHT22;29217;52.586;13.442;2022-12-07T07:32:57;3.20;99.90
43627;DHT22;29217;52.586;13.442;2022-12-07T07:35:24;3.20;99.90
43627;DHT22;29217;52.586;13.442;2022-12-07T07:37:50;3.20;99.90
43627;DHT22;29217;52.586;13.442;2022-12-07T07:40:15;3.20;99.90
43627;DHT22;29217;52.586;13.442;2022-12-07T07:42:41;3.20;99.90
43627;DHT22;29217;52.586;13.442;2022-12-07T07:45:07;3.20;99.90
43627;DHT22;29217;52.586;13.442;2022-12-07T07:47:33;3.30;99.90
43627;DHT22;29217;52.586;13.442;2022-12-07T07:49:58;3.30;99.90
43627;DHT22;29217;52.586;13.442;2022-12-07T07:52:24;3.30;99.90
43627;DHT22;29217;52.586;13.442;2022-12-07T07:54:50;3.40;99.90
43627;DHT22;29217;52.586;13.442;2022-12-07T07:57:16;3.40;99.90
43627;DHT22;29217;52.586;13.442;2022-12-07T07:59:42;3.40;99.90
43627;DHT22;29217;52.586;13.442;2022-12-07T08:02:14;3.40;99.90
43627;DHT22;29217;52.586;13.442;2022-12-07T08:04:39;3.40;99.90
43627;DHT22;29217;52.586;13.442;2022-12-07T08:07:05;3.40;99.90
43627;DHT22;29217;52.586;13.442;2022-12-07T08:09:31;3.40;99.90
43627;DHT22;29217;52.586;13.442;2022-12-07T08:11:57;3.50;99.90
43627;DHT22;29217;52.586;13.442;2022-12-07T08:14:24;3.50;99.90
43627;DHT22;29217;52.586;13.442;2022-12-07T08:16:49;3.50;99.90
43627;DHT22;29217;52.586;13.442;2022-12-07T08:19:15;3.50;99.90
43627;DHT22;29217;52.586;13.442;2022-12-07T08:21:41;3.40;99.90
43627;DHT22;29217;52.586;13.442;2022-12-07T08:24:06;3.50;99.90
43627;DHT22;29217;52.586;13.442;2022-12-07T08:26:32;3.50;99.90
43627;DHT22;29217;52.586;13.442;2022-12-07T08:28:57;3.50;99.90
43627;DHT22;29217;52.586;13.442;2022-12-07T08:31:23;3.50;99.90
43627;DHT22;29217;52.586;13.442;2022-12-07T08:33:49;3.50;99.90
43627;DHT22;29217;52.586;13.442;2022-12-07T08:36:15;3.50;99.90
43627;DHT22;29217;52.586;13.442;2022-12-07T08:38:41;3.50;99.90
43627;DHT22;29217;52.586;13.442;2022-12-07T08:41:07;3.50;99.90
43627;DHT22;29217;52.586;13.442;2022-12-07T08:43:33;3.60;99.90
43627;DHT22;29217;52.586;13.442;2022-12-07T08:46:18;3.50;99.90
43627;DHT22;29217;52.586;13.442;2022-12-07T08:49:07;3.50;99.90
43627;DHT22;29217;52.586;13.442;2022-12-07T08:51:34;3.50;99.90
43627;DHT22;29217;52.586;13.442;2022-12-07T08:54:04;3.50;99.90
43627;DHT22;29217;52.586;13.442;2022-12-07T08:56:31;3.50;99.90
43627;DHT22;29217;52.586;13.442;2022-12-07T08:58:57;3.50;99.90
43627;DHT22;29217;52.586;13.442;2022-12-07T09:01:23;3.50;99.90
43627;DHT22;29217;52.586;13.442;2022-12-07T09:03:48;3.50;99.90
43627;DHT22;29217;52.586;13.442;2022-12-07T09:06:14;3.50;99.90
43627;DHT22;29217;52.586;13.442;2022-12-07T09:08:43;3.50;99.90
43627;DHT22;29217;52.586;13.442;2022-12-07T09:11:09;3.60;99.90
43627;DHT22;29217;52.586;13.442;2022-12-07T09:13:35;3.60;99.90
43627;DHT22;29217;52.586;13.442;2022-12-07T09:16:00;3.50;99.90
43627;DHT22;29217;52.586;13.442;2022-12-07T09:18:26;3.60;99.90
43627;DHT22;29217;52.586;13.442;2022-12-07T09:20:51;3.60;99.90
43627;DHT22;29217;52.586;13.442;2022-12-07T09:23:17;3.60;99.90
43627;DHT22;29217;52.586;13.442;2022-12-07T09:25:43;3.60;99.90
43627;DHT22;29217;52.586;13.442;2022-12-07T09:28:08;3.60;99.90
43627;DHT22;29217;52.586;13.442;2022-12-07T09:30:34;3.60;99.90
43627;DHT22;29217;52.586;13.442;2022-12-07T09:33:00;3.60;99.90
43627;DHT22;29217;52.586;13.442;2022-12-07T09:35:26;3.50;99.90
43627;DHT22;29217;52.586;13.442;2022-12-07T09:37:52;3.50;99.90
43627;DHT22;29217;52.586;13.442;2022-12-07T09:40:20;3.60;99.90
43627;DHT22;29217;52.586;13.442;2022-12-07T09:42:49;3.50;99.90
43627;DHT22;29217;52.586;13.442;2022-12-07T09:45:27;3.50;99.90
43627;DHT22;29217;52.586;13.442;2022-12-07T09:47:55;3.50;99.90
43627;DHT22;29217;52.586;13.442;2022-12-07T09:50:23;3.40;99.90
43627;DHT22;29217;52.586;13.442;2022-12-07T09:52:51;3.50;99.90
43627;DHT22;29217;52.586;13.442;2022-12-07T09:55:27;3.50;99.90
43627;DHT22;29217;52.586;13.442;2022-12-07T09:57:54;3.40;99.90
43627;DHT22;29217;52.586;13.442;2022-12-07T10:00:22;3.40;99.90
43627;DHT22;29217;52.586;13.442;2022-12-07T10:02:58;3.30;99.90
43627;DHT22;29217;52.586;13.442;2022-12-07T10:05:49;3.30;99.90
43627;DHT22;29217;52.586;13.442;2022-12-07T10:08:15;3.40;99.90
43627;DHT22;29217;52.586;13.442;2022-12-07T10:10:43;3.30;99.90
43627;DHT22;29217;52.586;13.442;2022-12-07T10:13:12;3.30;99.90
43627;DHT22;29217;52.586;13.442;2022-12-07T10:15:55;3.30;99.90
43627;DHT22;29217;52.586;13.442;2022-12-07T10:21:12;3.30;99.90
43627;DHT22;29217;52.586;13.442;2022-12-07T10:29:18;3.40;99.90
43627;DHT22;29217;52.586;13.442;2022-12-07T10:31:48;3.30;99.90
43627;DHT22;29217;52.586;13.442;2022-12-07T10:34:37;3.40;99.90
43627;DHT22;29217;52.586;13.442;2022-12-07T10:42:20;3.50;99.90
43627;DHT22;29217;52.586;13.442;2022-12-07T10:44:47;3.50;99.90
43627;DHT22;29217;52.586;13.442;2022-12-07T10:47:27;3.50;99.90
43627;DHT22;29217;52.586;13.442;2022-12-07T10:58:49;3.50;99.90
43627;DHT22;29217;52.586;13.442;2022-12-07T11:01:34;3.60;99.90
43627;DHT22;29217;52.586;13.442;2022-12-07T11:04:24;3.70;99.90
43627;DHT22;29217;52.586;13.442;2022-12-07T11:13:02;3.60;99.90
43627;DHT22;29217;52.586;13.442;2022-12-07T11:21:57;3.60;99.90
43627;DHT22;29217;52.586;13.442;2022-12-07T11:24:31;3.60;99.90
43627;DHT22;29217;52.586;13.442;2022-12-07T11:38:02;3.50;99.90
43627;DHT22;29217;52.586;13.442;2022-12-07T11:40:36;3.50;99.90
43627;DHT22;29217;52.586;13.442;2022-12-07T11:43:18;3.60;99.90
43627;DHT22;29217;52.586;13.442;2022-12-07T11:45:50;3.60;99.90
43627;DHT22;29217;52.586;13.442;2022-12-07T11:48:23;3.60;99.90
43627;DHT22;29217;52.586;13.442;2022-12-07T11:50:54;3.70;99.90
43627;DHT22;29217;52.586;13.442;2022-12-07T11:53:26;3.70;99.90
43627;DHT22;29217;52.586;13.442;2022-12-07T11:56:06;3.70;99.90
43627;DHT22;29217;52.586;13.442;2022-12-07T12:04:51;3.80;99.90
43627;DHT22;29217;52.586;13.442;2022-12-07T12:07:23;3.90;99.90
43627;DHT22;29217;52.586;13.442;2022-12-07T12:09:54;3.90;99.90
43627;DHT22;29217;52.586;13.442;2022-12-07T12:15:03;3.90;99.90
43627;DHT22;29217;52.586;13.442;2022-12-07T12:20:45;3.90;99.90
43627;DHT22;29217;52.586;13.442;2022-12-07T12:23:21;3.90;99.90
43627;DHT22;29217;52.586;13.442;2022-12-07T12:25:51;3.90;99.90
43627;DHT22;29217;52.586;13.442;2022-12-07T12:28:29;3.80;99.90
43627;DHT22;29217;52.586;13.442;2022-12-07T12:33:48;3.90;99.90
43627;DHT22;29217;52.586;13.442;2022-12-07T12:47:03;4.00;99.90
43627;DHT22;29217;52.586;13.442;2022-12-07T12:55:02;4.00;99.90
43627;DHT22;29217;52.586;13.442;2022-12-07T12:57:37;4.00;99.90
43627;DHT22;29217;52.586;13.442;2022-12-07T13:00:16;4.00;99.90
43627;DHT22;29217;52.586;13.442;2022-12-07T13:02:56;4.00;99.90
43627;DHT22;29217;52.586;13.442;2022-12-07T13:05:29;4.00;99.90
43627;DHT22;29217;52.586;13.442;2022-12-07T13:13:01;4.00;99.90
43627;DHT22;29217;52.586;13.442;2022-12-07T13:20:58;4.10;99.90
43627;DHT22;29217;52.586;13.442;2022-12-07T13:26:05;4.00;99.90
43627;DHT22;29217;52.586;13.442;2022-12-07T13:28:40;4.00;99.90
43627;DHT22;29217;52.586;13.442;2022-12-07T13:33:35;3.90;99.90
43627;DHT22;29217;52.586;13.442;2022-12-07T13:36:01;3.90;99.90
43627;DHT22;29217;52.586;13.442;2022-12-07T13:38:29;4.00;99.90
43627;DHT22;29217;52.586;13.442;2022-12-07T13:43:49;4.00;99.90
43627;DHT22;29217;52.586;13.442;2022-12-07T13:46:15;3.90;99.90
43627;DHT22;29217;52.586;13.442;2022-12-07T13:48:51;4.00;99.90
43627;DHT22;29217;52.586;13.442;2022-12-07T13:51:28;4.00;99.90
43627;DHT22;29217;52.586;13.442;2022-12-07T13:54:01;4.00;99.90
43627;DHT22;29217;52.586;13.442;2022-12-07T13:56:32;4.00;99.90
43627;DHT22;29217;52.586;13.442;2022-12-07T13:58:58;4.10;99.90
43627;DHT22;29217;52.586;13.442;2022-12-07T14:01:24;4.10;99.90
43627;DHT22;29217;52.586;13.442;2022-12-07T14:03:50;4.00;99.90
43627;DHT22;29217;52.586;13.442;2022-12-07T14:06:20;4.00;99.90
43627;DHT22;29217;52.586;13.442;2022-12-07T14:08:47;4.10;99.90
43627;DHT22;29217;52.586;13.442;2022-12-07T14:11:16;4.00;99.90
43627;DHT22;29217;52.586;13.442;2022-12-07T14:16:29;4.10;99.90
43627;DHT22;29217;52.586;13.442;2022-12-07T14:18:58;4.00;99.90
43627;DHT22;29217;52.586;13.442;2022-12-07T14:21:29;4.10;99.90
43627;DHT22;29217;52.586;13.442;2022-12-07T14:26:37;4.00;99.90
43627;DHT22;29217;52.586;13.442;2022-12-07T14:29:29;4.00;99.90
43627;DHT22;29217;52.586;13.442;2022-12-07T14:31:57;4.00;99.90
43627;DHT22;29217;52.586;13.442;2022-12-07T14:34:24;4.00;99.90
43627;DHT22;29217;52.586;13.442;2022-12-07T14:36:50;4.00;99.90
43627;DHT22;29217;52.586;13.442;2022-12-07T14:39:16;4.00;99.90
43627;DHT22;29217;52.586;13.442;2022-12-07T14:41:41;4.00;99.90
43627;DHT22;29217;52.586;13.442;2022-12-07T14:44:20;4.00;99.90
43627;DHT22;29217;52.586;13.442;2022-12-07T14:46:49;4.00;99.90
43627;DHT22;29217;52.586;13.442;2022-12-07T14:49:16;4.00;99.90
43627;DHT22;29217;52.586;13.442;2022-12-07T14:51:42;4.00;99.90
43627;DHT22;29217;52.586;13.442;2022-12-07T14:54:17;4.00;99.90
43627;DHT22;29217;52.586;13.442;2022-12-07T14:56:44;4.00;99.90
43627;DHT22;29217;52.586;13.442;2022-12-07T14:59:11;4.00;99.90
43627;DHT22;29217;52.586;13.442;2022-12-07T15:01:37;4.00;99.90
43627;DHT22;29217;52.586;13.442;2022-12-07T15:04:03;3.90;99.90
43627;DHT22;29217;52.586;13.442;2022-12-07T15:06:28;3.90;99.90
43627;DHT22;29217;52.586;13.442;2022-12-07T15:08:54;3.80;99.90
43627;DHT22;29217;52.586;13.442;2022-12-07T15:11:20;3.80;99.90
43627;DHT22;29217;52.586;13.442;2022-12-07T15:13:46;3.70;99.90
43627;DHT22;29217;52.586;13.442;2022-12-07T15:16:30;3.70;99.90
43627;DHT22;29217;52.586;13.442;2022-12-07T15:18:56;3.70;99.90
43627;DHT22;29217;52.586;13.442;2022-12-07T15:21:22;3.70;99.90
43627;DHT22;29217;52.586;13.442;2022-12-07T15:23:48;3.70;99.90
43627;DHT22;29217;52.586;13.442;2022-12-07T15:26:13;3.60;99.90
43627;DHT22;29217;52.586;13.442;2022-12-07T15:28:40;3.70;99.90
43627;DHT22;29217;52.586;13.442;2022-12-07T15:31:12;3.50;99.90
43627;DHT22;29217;52.586;13.442;2022-12-07T15:33:37;3.60;99.90
43627;DHT22;29217;52.586;13.442;2022-12-07T15:36:03;3.50;99.90
43627;DHT22;29217;52.586;13.442;2022-12-07T15:38:29;3.50;99.90
43627;DHT22;29217;52.586;13.442;2022-12-07T15:40:56;3.50;99.90
43627;DHT22;29217;52.586;13.442;2022-12-07T15:43:21;3.50;99.90
43627;DHT22;29217;52.586;13.442;2022-12-07T15:46:06;3.50;99.90
43627;DHT22;29217;52.586;13.442;2022-12-07T15:48:32;3.50;99.90
43627;DHT22;29217;52.586;13.442;2022-12-07T15:51:05;3.50;99.90
43627;DHT22;29217;52.586;13.442;2022-12-07T15:53:31;3.50;99.90
43627;DHT22;29217;52.586;13.442;2022-12-07T15:55:57;3.50;99.90
43627;DHT22;29217;52.586;13.442;2022-12-07T15:58:22;3.50;99.90
43627;DHT22;29217;52.586;13.442;2022-12-07T16:00:48;3.50;99.90
43627;DHT22;29217;52.586;13.442;2022-12-07T16:03:14;3.50;99.90
43627;DHT22;29217;52.586;13.442;2022-12-07T16:05:39;3.50;99.90
43627;DHT22;29217;52.586;13.442;2022-12-07T16:08:05;3.50;99.90
43627;DHT22;29217;52.586;13.442;2022-12-07T16:10:31;3.60;99.90
43627;DHT22;29217;52.586;13.442;2022-12-07T16:12:56;3.60;99.90
43627;DHT22;29217;52.586;13.442;2022-12-07T16:15:22;3.60;99.90
43627;DHT22;29217;52.586;13.442;2022-12-07T16:17:50;3.50;99.90
43627;DHT22;29217;52.586;13.442;2022-12-07T16:20:16;3.30;99.90
43627;DHT22;29217;52.586;13.442;2022-12-07T16:22:41;3.10;99.90
43627;DHT22;29217;52.586;13.442;2022-12-07T16:25:07;2.90;99.90
43627;DHT22;29217;52.586;13.442;2022-12-07T16:27:33;2.90;99.90
43627;DHT22;29217;52.586;13.442;2022-12-07T16:29:59;2.90;99.90
43627;DHT22;29217;52.586;13.442;2022-12-07T16:32:24;2.90;99.90
43627;DHT22;29217;52.586;13.442;2022-12-07T16:34:50;3.00;99.90
43627;DHT22;29217;52.586;13.442;2022-12-07T16:37:16;3.10;99.90
43627;DHT22;29217;52.586;13.442;2022-12-07T16:39:41;3.20;99.90
43627;DHT22;29217;52.586;13.442;2022-12-07T16:42:07;3.20;99.90
43627;DHT22;29217;52.586;13.442;2022-12-07T16:44:32;3.10;99.90
43627;DHT22;29217;52.586;13.442;2022-12-07T16:46:58;3.10;99.90
43627;DHT22;29217;52.586;13.442;2022-12-07T16:49:24;3.10;99.90
43627;DHT22;29217;52.586;13.442;2022-12-07T16:51:50;3.10;99.90
43627;DHT22;29217;52.586;13.442;2022-12-07T16:54:16;3.00;99.90
43627;DHT22;29217;52.586;13.442;2022-12-07T16:56:41;3.00;99.90
43627;DHT22;29217;52.586;13.442;2022-12-07T16:59:07;2.90;99.90
43627;DHT22;29217;52.586;13.442;2022-12-07T17:01:33;2.90;99.90
43627;DHT22;29217;52.586;13.442;2022-12-07T17:04:00;2.80;99.90
43627;DHT22;29217;52.586;13.442;2022-12-07T17:06:27;2.80;99.90
43627;DHT22;29217;52.586;13.442;2022-12-07T17:08:54;2.80;99.90
43627;DHT22;29217;52.586;13.442;2022-12-07T17:11:20;2.80;99.90
43627;DHT22;29217;52.586;13.442;2022-12-07T17:13:47;2.70;99.90
43627;DHT22;29217;52.586;13.442;2022-12-07T17:16:31;2.80;99.90
43627;DHT22;29217;52.586;13.442;2022-12-07T17:18:57;2.80;99.90
43627;DHT22;29217;52.586;13.442;2022-12-07T17:21:23;2.70;99.90
43627;DHT22;29217;52.586;13.442;2022-12-07T17:23:49;2.70;99.90
43627;DHT22;29217;52.586;13.442;2022-12-07T17:26:18;2.60;99.90
43627;DHT22;29217;52.586;13.442;2022-12-07T17:28:44;2.70;99.90
43627;DHT22;29217;52.586;13.442;2022-12-07T17:31:12;2.60;99.90
43627;DHT22;29217;52.586;13.442;2022-12-07T17:33:38;2.60;99.90
43627;DHT22;29217;52.586;13.442;2022-12-07T17:36:11;2.60;99.90
43627;DHT22;29217;52.586;13.442;2022-12-07T17:38:37;2.60;99.90
43627;DHT22;29217;52.586;13.442;2022-12-07T17:43:59;2.60;99.90
43627;DHT22;29217;52.586;13.442;2022-12-07T17:46:24;2.60;99.90
43627;DHT22;29217;52.586;13.442;2022-12-07T17:48:50;2.50;99.90
43627;DHT22;29217;52.586;13.442;2022-12-07T17:51:18;2.50;99.90
43627;DHT22;29217;52.586;13.442;2022-12-07T17:54:02;2.40;99.90
43627;DHT22;29217;52.586;13.442;2022-12-07T17:56:27;2.40;99.90
43627;DHT22;29217;52.586;13.442;2022-12-07T17:58:53;2.40;99.90